createdAt,value
2022-11-16T00:01:48.945Z,86.66
2022-11-16T00:04:32.092Z,85.77
2022-11-16T00:07:15.258Z,86.34
2022-11-16T00:09:59.765Z,85.83
2022-11-16T00:12:42.772Z,84.88
2022-11-16T00:15:26.859Z,85.04
2022-11-16T00:18:09.886Z,85.42
2022-11-16T00:20:52.987Z,84.97
2022-11-16T00:23:38.442Z,84.17
2022-11-16T00:26:23.171Z,84.16
2022-11-16T00:29:06.194Z,85.39
2022-11-16T00:31:50.124Z,85.43
2022-11-16T00:34:33.179Z,85.89
2022-11-16T00:37:16.196Z,86.23
2022-11-16T00:39:59.213Z,87.39
2022-11-16T00:42:43.571Z,86.92
2022-11-16T00:45:26.556Z,87.75
2022-11-16T00:48:09.607Z,86.80
2022-11-16T00:50:52.760Z,87.52
2022-11-16T00:53:36.692Z,88.41
2022-11-16T00:56:19.708Z,87.98
2022-11-16T00:59:04.166Z,87.86
2022-11-16T01:01:47.361Z,87.83
2022-11-16T01:04:30.506Z,88.00
2022-11-16T01:07:13.566Z,89.28
2022-11-16T01:09:56.642Z,88.95
2022-11-16T01:12:39.770Z,89.78
2022-11-16T01:15:26.995Z,89.80
2022-11-16T01:18:09.984Z,89.56
2022-11-16T01:20:54.374Z,90.53
2022-11-16T01:23:37.402Z,91.05
2022-11-16T01:26:20.653Z,90.39
2022-11-16T01:29:03.731Z,89.88
2022-11-16T01:31:48.178Z,90.21
2022-11-16T01:34:31.291Z,88.99
2022-11-16T01:37:14.304Z,88.32
2022-11-16T01:39:57.446Z,88.95
2022-11-16T01:42:40.701Z,88.56
2022-11-16T01:45:32.498Z,88.88
2022-11-16T01:48:23.314Z,89.79
2022-11-16T01:51:06.546Z,90.47
2022-11-16T01:53:49.674Z,89.47
2022-11-16T01:56:34.042Z,89.26
2022-11-16T01:59:18.665Z,89.25
2022-11-16T02:02:02.352Z,89.31
2022-11-16T02:04:48.874Z,89.92
2022-11-16T02:08:01.682Z,89.22
2022-11-16T02:10:59.867Z,89.07
2022-11-16T02:13:51.656Z,88.53
2022-11-16T02:16:44.421Z,89.32
2022-11-16T02:19:52.430Z,91.10
2022-11-16T02:22:49.537Z,91.11
2022-11-16T02:25:39.395Z,92.01
2022-11-16T02:28:34.425Z,92.02
2022-11-16T02:31:25.860Z,92.23
2022-11-16T02:34:12.276Z,92.15
2022-11-16T02:36:58.236Z,91.54
2022-11-16T02:39:43.095Z,92.32
2022-11-16T02:42:32.330Z,91.64
2022-11-16T02:45:21.373Z,91.50
2022-11-16T02:48:09.775Z,90.06
2022-11-16T02:50:54.540Z,89.46
2022-11-16T02:53:42.824Z,90.77
2022-11-16T02:56:26.729Z,89.29
2022-11-16T02:59:16.519Z,89.32
2022-11-16T03:02:14.958Z,89.43
2022-11-16T03:05:05.788Z,90.02
2022-11-16T03:07:53.430Z,91.13
2022-11-16T03:10:57.789Z,91.15
2022-11-16T03:13:42.742Z,91.72
2022-11-16T03:16:29.674Z,91.21
2022-11-16T03:19:15.772Z,91.31
2022-11-16T03:22:05.024Z,93.02
2022-11-16T03:24:48.891Z,92.73
2022-11-16T03:27:40.320Z,92.43
2022-11-16T03:30:25.658Z,91.45
2022-11-16T03:33:15.565Z,91.47
2022-11-16T03:36:04.910Z,90.56
2022-11-16T03:38:52.874Z,91.28
2022-11-16T03:41:38.726Z,90.25
2022-11-16T03:44:22.815Z,89.93
2022-11-16T03:47:06.011Z,90.38
2022-11-16T03:49:49.558Z,89.14
2022-11-16T03:52:32.797Z,89.46
2022-11-16T03:55:17.382Z,91.01
2022-11-16T03:58:00.400Z,92.09
2022-11-16T04:00:43.475Z,90.91
2022-11-16T04:03:26.546Z,90.98
2022-11-16T04:06:27.777Z,91.00
2022-11-16T04:09:28.332Z,89.90
2022-11-16T04:12:30.080Z,89.40
2022-11-16T04:15:30.576Z,90.08
2022-11-16T04:18:31.239Z,90.36
2022-11-16T04:21:37.488Z,90.55
2022-11-16T04:24:24.245Z,91.11
2022-11-16T04:27:27.847Z,91.47
2022-11-16T04:30:13.556Z,92.57
2022-11-16T04:33:13.682Z,91.91
2022-11-16T04:36:17.936Z,92.64
2022-11-16T04:39:03.676Z,92.71
2022-11-16T04:42:04.023Z,91.35
2022-11-16T04:45:04.850Z,90.34
2022-11-16T04:47:51.317Z,90.10
2022-11-16T04:50:35.011Z,90.57
2022-11-16T04:53:18.075Z,90.92
2022-11-16T04:56:01.224Z,90.06
2022-11-16T04:58:44.297Z,91.26
2022-11-16T05:01:41.196Z,92.68
2022-11-16T05:04:25.730Z,93.24
2022-11-16T05:07:11.259Z,93.53
2022-11-16T05:09:54.539Z,91.92
2022-11-16T05:12:37.655Z,91.51
2022-11-16T05:15:20.726Z,91.36
2022-11-16T05:18:03.768Z,91.13
2022-11-16T05:21:02.433Z,90.47
2022-11-16T05:24:02.570Z,90.04
2022-11-16T05:26:45.761Z,89.78
2022-11-16T05:29:28.882Z,88.24
2022-11-16T05:32:13.493Z,87.74
2022-11-16T05:34:56.544Z,86.33
2022-11-16T05:37:41.198Z,85.87
2022-11-16T05:40:24.206Z,85.25
2022-11-16T05:43:07.169Z,84.96
2022-11-16T05:45:50.178Z,86.85
2022-11-16T05:48:33.589Z,86.40
2022-11-16T05:51:16.813Z,85.85
2022-11-16T05:54:01.356Z,85.06
2022-11-16T05:56:44.504Z,84.65
2022-11-16T05:59:27.864Z,84.83
2022-11-16T06:02:10.861Z,85.55
2022-11-16T06:04:54.042Z,85.34
2022-11-16T06:07:37.232Z,84.26
2022-11-16T06:10:21.729Z,84.65
2022-11-16T06:13:04.851Z,85.08
2022-11-16T06:15:53.881Z,85.04
2022-11-16T06:18:38.852Z,84.29
2022-11-16T06:21:21.849Z,84.57
2022-11-16T06:24:09.050Z,84.58
2022-11-16T06:26:53.669Z,84.68
2022-11-16T06:29:36.721Z,83.54
2022-11-16T06:32:19.734Z,83.07
2022-11-16T06:35:02.787Z,82.02
2022-11-16T06:37:45.818Z,81.24
2022-11-16T06:40:28.874Z,82.61
2022-11-16T06:43:13.404Z,82.36
2022-11-16T06:45:58.499Z,82.08
2022-11-16T06:48:41.594Z,83.58
2022-11-16T06:51:24.574Z,82.41
2022-11-16T06:54:07.765Z,81.11
2022-11-16T06:56:50.883Z,80.66
2022-11-16T06:59:35.566Z,79.66
2022-11-16T07:02:21.397Z,80.71
2022-11-16T07:05:04.515Z,81.57
2022-11-16T07:07:47.593Z,79.88
2022-11-16T07:10:30.653Z,79.92
2022-11-16T07:13:13.981Z,79.89
2022-11-16T07:16:03.864Z,78.91
2022-11-16T07:18:46.884Z,78.89
2022-11-16T07:21:30.222Z,78.23
2022-11-16T07:24:13.268Z,77.90
2022-11-16T07:26:56.255Z,77.58
2022-11-16T07:29:39.308Z,78.49
2022-11-16T07:32:23.765Z,77.02
2022-11-16T07:35:07.782Z,76.50
2022-11-16T07:37:50.819Z,75.85
2022-11-16T07:40:33.837Z,76.29
2022-11-16T07:43:16.945Z,74.48
2022-11-16T07:46:30.327Z,73.84
2022-11-16T07:49:11.328Z,74.98
2022-11-16T07:51:54.821Z,73.93
2022-11-16T07:54:38.057Z,76.23
2022-11-16T07:57:21.097Z,76.91
2022-11-16T08:00:04.962Z,75.56
2022-11-16T08:02:47.949Z,74.67
2022-11-16T08:05:32.453Z,73.18
2022-11-16T08:08:15.489Z,73.56
2022-11-16T08:11:01.770Z,72.98
2022-11-16T08:13:45.088Z,73.31
2022-11-16T08:16:28.217Z,75.76
2022-11-16T08:19:11.517Z,73.83
2022-11-16T08:21:56.038Z,71.60
2022-11-16T08:24:39.089Z,70.84
2022-11-16T08:27:22.138Z,71.98
2022-11-16T08:30:09.898Z,71.82
2022-11-16T08:32:52.931Z,70.99
2022-11-16T08:35:36.388Z,71.88
2022-11-16T08:38:20.838Z,72.45
2022-11-16T08:41:03.934Z,73.17
2022-11-16T08:43:50.586Z,71.76
2022-11-16T08:46:33.786Z,73.63
2022-11-16T08:49:17.003Z,72.68
2022-11-16T08:52:00.220Z,70.91
2022-11-16T08:54:44.655Z,74.37
2022-11-16T08:57:27.725Z,73.47
2022-11-16T09:00:12.428Z,72.24
2022-11-16T09:02:55.478Z,70.88
2022-11-16T09:05:39.728Z,69.73
2022-11-16T09:08:22.773Z,73.42
2022-11-16T09:11:08.408Z,73.94
2022-11-16T09:13:53.878Z,73.27
2022-11-16T09:16:36.980Z,73.06
2022-11-16T09:19:20.623Z,71.62
2022-11-16T09:22:03.741Z,72.43
2022-11-16T09:24:46.753Z,72.85
2022-11-16T09:27:31.306Z,73.54
2022-11-16T09:30:14.953Z,74.48
2022-11-16T09:33:00.407Z,74.14
2022-11-16T09:35:43.600Z,74.67
2022-11-16T09:38:40.212Z,74.70
2022-11-16T09:41:53.238Z,75.35
2022-11-16T09:44:54.367Z,73.90
2022-11-16T09:47:49.119Z,73.66
2022-11-16T09:50:46.000Z,72.06
2022-11-16T09:53:35.379Z,69.96
2022-11-16T09:56:22.923Z,65.08
2022-11-16T09:59:17.946Z,63.38
2022-11-16T10:02:17.104Z,59.81
2022-11-16T10:05:05.050Z,61.39
2022-11-16T10:07:52.003Z,58.19
2022-11-16T10:10:38.966Z,55.00
2022-11-16T10:13:35.638Z,51.94
2022-11-16T10:16:24.033Z,43.92
2022-11-16T10:19:15.935Z,41.80
2022-11-16T10:22:08.353Z,37.18
2022-11-16T10:24:58.873Z,32.22
2022-11-16T10:28:03.127Z,30.54
2022-11-16T10:30:55.481Z,24.55
2022-11-16T10:33:41.112Z,21.70
2022-11-16T10:36:30.158Z,21.82
2022-11-16T10:39:18.213Z,25.77
2022-11-16T10:42:07.747Z,22.98
2022-11-16T10:44:58.849Z,19.04
2022-11-16T10:47:47.147Z,19.41
2022-11-16T10:50:38.543Z,19.51
2022-11-16T10:53:30.175Z,19.76
2022-11-16T10:56:19.010Z,18.83
2022-11-16T10:59:04.497Z,19.62
2022-11-16T11:01:51.090Z,19.19
2022-11-16T11:04:34.223Z,20.42
2022-11-16T11:07:29.764Z,21.74
2022-11-16T11:10:29.684Z,20.85
2022-11-16T11:13:27.748Z,20.55
2022-11-16T11:16:16.939Z,21.26
2022-11-16T11:19:18.797Z,24.81
2022-11-16T11:22:02.347Z,23.46
2022-11-16T11:24:49.640Z,21.39
2022-11-16T11:27:36.766Z,21.11
2022-11-16T11:30:22.301Z,26.46
2022-11-16T11:33:12.637Z,30.16
2022-11-16T11:36:06.863Z,33.98
2022-11-16T11:38:59.422Z,37.23
2022-11-16T11:41:47.085Z,38.77
2022-11-16T11:44:56.839Z,40.92
2022-11-16T11:47:58.983Z,42.13
2022-11-16T11:50:49.171Z,45.98
2022-11-16T11:53:48.236Z,45.93
2022-11-16T11:56:34.211Z,47.09
2022-11-16T11:59:21.644Z,47.27
2022-11-16T12:02:21.975Z,48.37
2022-11-16T12:05:42.933Z,49.36
2022-11-16T12:08:40.156Z,51.04
2022-11-16T12:11:32.345Z,52.17
2022-11-16T12:14:30.239Z,52.40
2022-11-16T12:17:20.733Z,53.95
2022-11-16T12:20:25.987Z,54.51
2022-11-16T12:23:23.119Z,56.77
2022-11-16T12:26:16.615Z,57.92
2022-11-16T12:29:14.303Z,58.85
2022-11-16T12:32:18.512Z,59.46
2022-11-16T12:35:27.570Z,60.25
2022-11-16T12:38:27.612Z,60.15
2022-11-16T12:41:38.797Z,60.95
2022-11-16T12:44:33.584Z,60.17
2022-11-16T12:47:29.140Z,60.42
2022-11-16T12:50:34.443Z,60.00
2022-11-16T12:53:52.785Z,60.79
2022-11-16T12:56:49.078Z,60.69
2022-11-16T12:59:47.738Z,60.53
2022-11-16T13:02:54.464Z,59.75
2022-11-16T13:05:53.754Z,60.52
2022-11-16T13:08:48.113Z,59.76
2022-11-16T13:11:35.135Z,59.92
2022-11-16T13:14:21.176Z,59.87
2022-11-16T13:17:05.836Z,60.25
2022-11-16T13:20:16.925Z,60.19
2022-11-16T13:23:04.169Z,60.48
2022-11-16T13:25:52.185Z,60.45
2022-11-16T13:28:41.080Z,60.86
2022-11-16T13:31:32.818Z,62.52
2022-11-16T13:34:21.637Z,62.48
2022-11-16T13:37:45.695Z,62.59
2022-11-16T13:40:31.224Z,62.76
2022-11-16T13:43:19.863Z,63.10
2022-11-16T13:46:02.985Z,62.22
2022-11-16T13:48:47.535Z,62.58
2022-11-16T13:51:30.655Z,62.65
2022-11-16T13:54:44.580Z,62.73
2022-11-16T13:57:24.392Z,62.90
2022-11-16T14:00:20.852Z,63.76
2022-11-16T14:03:27.802Z,63.66
2022-11-16T14:06:48.113Z,62.49
2022-11-16T14:09:45.019Z,64.17
2022-11-16T14:13:00.940Z,64.04
2022-11-16T14:15:44.004Z,63.83
2022-11-16T14:18:38.232Z,64.00
2022-11-16T14:21:39.313Z,64.95
2022-11-16T14:24:30.263Z,64.72
2022-11-16T14:27:30.298Z,63.53
2022-11-16T14:30:20.221Z,64.38
2022-11-16T14:33:03.724Z,64.60
2022-11-16T14:35:53.842Z,65.10
2022-11-16T14:38:39.557Z,65.69
2022-11-16T14:41:25.888Z,65.31
2022-11-16T14:44:11.871Z,65.51
2022-11-16T14:46:55.214Z,65.76
2022-11-16T14:49:48.266Z,66.38
2022-11-16T14:52:37.771Z,66.56
2022-11-16T14:55:22.886Z,66.49
2022-11-16T14:58:10.285Z,67.16
2022-11-16T15:00:58.076Z,67.88
2022-11-16T15:03:49.689Z,67.97
2022-11-16T15:06:40.215Z,67.76
2022-11-16T15:09:28.381Z,68.17
2022-11-16T15:12:33.792Z,68.85
2022-11-16T15:15:18.827Z,68.72
2022-11-16T15:18:14.953Z,69.43
2022-11-16T15:20:57.970Z,69.48
2022-11-16T15:24:02.131Z,69.27
2022-11-16T15:26:51.756Z,69.92
2022-11-16T15:29:34.825Z,70.67
2022-11-16T15:32:18.973Z,70.01
2022-11-16T15:35:05.441Z,70.24
2022-11-16T15:37:48.802Z,71.37
2022-11-16T15:40:32.081Z,71.21
2022-11-16T15:43:16.779Z,72.06
2022-11-16T15:46:00.980Z,72.41
2022-11-16T15:48:45.115Z,72.67
2022-11-16T15:51:32.335Z,72.64
2022-11-16T15:54:22.391Z,72.03
2022-11-16T15:57:10.303Z,73.06
2022-11-16T15:59:56.381Z,72.50
2022-11-16T16:02:39.494Z,72.80
2022-11-16T16:05:34.788Z,73.05
2022-11-16T16:08:35.351Z,72.41
2022-11-16T16:11:29.112Z,72.84
2022-11-16T16:14:22.387Z,72.38
2022-11-16T16:17:05.563Z,73.16
2022-11-16T16:19:56.139Z,73.96
2022-11-16T16:22:39.288Z,73.29
2022-11-16T16:25:32.414Z,74.13
2022-11-16T16:28:15.410Z,75.14
2022-11-16T16:30:58.438Z,74.41
2022-11-16T16:33:42.328Z,73.75
2022-11-16T16:36:25.339Z,74.25
2022-11-16T16:39:08.585Z,74.31
2022-11-16T16:41:53.018Z,75.14
2022-11-16T16:44:36.297Z,74.14
2022-11-16T16:47:21.331Z,74.64
2022-11-16T16:50:06.312Z,74.89
2022-11-16T16:52:49.717Z,74.03
2022-11-16T16:55:37.252Z,73.75
2022-11-16T16:58:22.316Z,75.23
2022-11-16T17:01:06.762Z,75.98
2022-11-16T17:03:50.603Z,75.43
2022-11-16T17:06:34.144Z,74.84
2022-11-16T17:09:17.576Z,75.47
2022-11-16T17:12:00.662Z,76.44
2022-11-16T17:14:52.355Z,75.94
2022-11-16T17:17:37.324Z,76.98
2022-11-16T17:20:20.452Z,77.44
2022-11-16T17:23:03.572Z,76.94
2022-11-16T17:25:46.713Z,77.14
2022-11-16T17:28:29.978Z,77.47
2022-11-16T17:31:15.089Z,77.71
2022-11-16T17:33:58.663Z,77.04
2022-11-16T17:36:41.668Z,77.66
2022-11-16T17:39:25.222Z,79.78
2022-11-16T17:42:09.415Z,80.45
2022-11-16T17:44:54.261Z,79.85
2022-11-16T17:47:39.228Z,78.76
2022-11-16T17:50:22.349Z,79.04
2022-11-16T17:53:05.736Z,80.88
2022-11-16T17:55:49.061Z,77.84
2022-11-16T17:58:32.903Z,78.87
2022-11-16T18:01:16.084Z,81.10
2022-11-16T18:04:01.103Z,81.50
2022-11-16T18:06:45.049Z,83.07
2022-11-16T18:09:28.392Z,85.12
2022-11-16T18:12:11.478Z,85.43
2022-11-16T18:15:21.296Z,85.71
2022-11-16T18:17:57.943Z,84.90
2022-11-16T18:20:42.507Z,88.12
2022-11-16T18:23:25.506Z,86.84
2022-11-16T18:26:09.996Z,88.08
2022-11-16T18:28:53.945Z,88.08
2022-11-16T18:31:37.043Z,88.49
2022-11-16T18:34:20.425Z,86.54
2022-11-16T18:37:04.945Z,89.55
2022-11-16T18:39:48.039Z,89.06
2022-11-16T18:42:31.120Z,88.61
2022-11-16T18:45:14.156Z,88.75
2022-11-16T18:47:57.244Z,89.69
2022-11-16T18:50:40.280Z,87.75
2022-11-16T18:53:25.076Z,87.41
2022-11-16T18:56:09.024Z,88.55
2022-11-16T18:58:53.109Z,90.07
2022-11-16T19:01:36.524Z,91.05
2022-11-16T19:04:19.586Z,91.31
2022-11-16T19:07:02.745Z,91.10
2022-11-16T19:09:47.390Z,91.00
2022-11-16T19:12:30.722Z,90.52
2022-11-16T19:15:14.258Z,91.98
2022-11-16T19:18:19.883Z,92.25
2022-11-16T19:21:07.715Z,89.36
2022-11-16T19:23:52.167Z,91.25
2022-11-16T19:26:36.613Z,91.26
2022-11-16T19:29:19.659Z,91.13
2022-11-16T19:32:02.788Z,90.42
2022-11-16T19:34:45.786Z,89.07
2022-11-16T19:37:29.258Z,91.53
2022-11-16T19:40:13.478Z,92.82
2022-11-16T19:42:58.410Z,92.99
2022-11-16T19:45:42.479Z,92.13
2022-11-16T19:48:25.510Z,89.34
2022-11-16T19:51:09.932Z,91.36
2022-11-16T19:53:53.245Z,91.63
2022-11-16T19:56:36.290Z,94.42
2022-11-16T19:59:20.980Z,96.21
2022-11-16T20:02:04.239Z,94.90
2022-11-16T20:04:47.438Z,92.33
2022-11-16T20:07:30.651Z,91.68
2022-11-16T20:10:13.789Z,93.49
2022-11-16T20:12:56.923Z,94.16
2022-11-16T20:15:41.397Z,93.48
2022-11-16T20:18:24.547Z,94.07
2022-11-16T20:21:08.717Z,93.23
2022-11-16T20:23:52.701Z,95.27
2022-11-16T20:26:37.625Z,94.84
2022-11-16T20:29:21.047Z,93.26
2022-11-16T20:32:05.624Z,94.54
2022-11-16T20:34:48.652Z,94.18
2022-11-16T20:37:31.650Z,94.77
2022-11-16T20:40:15.631Z,93.10
2022-11-16T20:43:00.255Z,93.63
2022-11-16T20:45:43.354Z,95.51
2022-11-16T20:48:27.780Z,91.46
2022-11-16T20:51:12.774Z,91.57
2022-11-16T20:53:56.223Z,93.25
2022-11-16T20:56:39.296Z,91.85
2022-11-16T20:59:22.289Z,92.47
2022-11-16T21:02:05.405Z,93.31
2022-11-16T21:04:49.836Z,91.42
2022-11-16T21:07:32.958Z,93.40
2022-11-16T21:10:21.936Z,94.21
2022-11-16T21:13:22.552Z,95.19
2022-11-16T21:16:08.205Z,95.27
2022-11-16T21:18:51.283Z,95.72
2022-11-16T21:21:35.923Z,95.92
2022-11-16T21:24:18.924Z,95.29
2022-11-16T21:27:01.914Z,94.81
2022-11-16T21:29:44.966Z,94.12
2022-11-16T21:32:28.022Z,94.24
2022-11-16T21:35:11.023Z,93.68
2022-11-16T21:37:55.400Z,93.72
2022-11-16T21:40:38.961Z,94.58
2022-11-16T21:43:22.182Z,94.41
2022-11-16T21:46:06.742Z,93.77
2022-11-16T21:48:51.316Z,94.43
2022-11-16T21:51:34.941Z,95.81
2022-11-16T21:54:19.481Z,95.06
2022-11-16T21:57:02.709Z,94.97
2022-11-16T21:59:45.726Z,94.02
2022-11-16T22:02:28.740Z,93.26
2022-11-16T22:05:29.203Z,93.73
2022-11-16T22:08:12.780Z,92.54
2022-11-16T22:10:57.220Z,93.63
2022-11-16T22:13:40.690Z,94.76
2022-11-16T22:16:24.381Z,95.35
2022-11-16T22:19:07.408Z,95.18
2022-11-16T22:21:50.392Z,94.37
2022-11-16T22:24:33.494Z,94.18
2022-11-16T22:27:18.905Z,95.53
2022-11-16T22:30:01.873Z,97.02
2022-11-16T22:32:46.028Z,96.26
2022-11-16T22:35:29.068Z,96.50
2022-11-16T22:38:12.068Z,96.67
2022-11-16T22:40:56.984Z,97.51
2022-11-16T22:43:41.624Z,96.81
2022-11-16T22:46:24.828Z,96.88
2022-11-16T22:49:07.918Z,96.59
2022-11-16T22:51:51.011Z,95.98
2022-11-16T22:54:34.703Z,96.53
2022-11-16T22:57:17.693Z,96.70
2022-11-16T23:00:02.143Z,95.45
2022-11-16T23:02:45.293Z,95.80
2022-11-16T23:05:28.361Z,95.60
2022-11-16T23:08:11.344Z,97.65
2022-11-16T23:11:18.723Z,97.59
2022-11-16T23:14:20.146Z,97.56
2022-11-16T23:17:05.092Z,97.68
2022-11-16T23:20:05.750Z,96.48
2022-11-16T23:23:06.104Z,97.56
2022-11-16T23:26:06.579Z,96.59
2022-11-16T23:28:49.592Z,96.43
2022-11-16T23:31:32.626Z,97.83
2022-11-16T23:34:16.993Z,97.56
2022-11-16T23:37:03.486Z,96.60
2022-11-16T23:39:46.482Z,97.24
2022-11-16T23:42:47.243Z,98.05
2022-11-16T23:45:30.256Z,98.97
2022-11-16T23:48:16.041Z,98.98
2022-11-16T23:51:00.498Z,100.00
2022-11-16T23:53:43.482Z,99.56
2022-11-16T23:56:26.518Z,100.00
2022-11-16T23:59:09.580Z,100.00
